sensor_id;sensor_type;location;lat;lon;timestamp;P1;durP1;ratioP1;P2;durP2;ratioP2
10096;SDS011;5087;42.662;23.466;2023-06-04T00:00:49;0.00;;;0.00;;
10096;SDS011;5087;42.662;23.466;2023-06-04T00:03:17;0.00;;;0.00;;
10096;SDS011;5087;42.662;23.466;2023-06-04T00:05:45;0.63;;;0.27;;
10096;SDS011;5087;42.662;23.466;2023-06-04T00:08:13;0.00;;;0.00;;
10096;SDS011;5087;42.662;23.466;2023-06-04T00:10:42;0.00;;;0.00;;
10096;SDS011;5087;42.662;23.466;2023-06-04T00:13:10;0.00;;;0.00;;
10096;SDS011;5087;42.662;23.466;2023-06-04T00:15:37;0.00;;;0.00;;
10096;SDS011;5087;42.662;23.466;2023-06-04T00:18:08;0.00;;;0.00;;
10096;SDS011;5087;42.662;23.466;2023-06-04T00:20:39;0.00;;;0.00;;
10096;SDS011;5087;42.662;23.466;2023-06-04T00:23:06;0.00;;;0.00;;
10096;SDS011;5087;42.662;23.466;2023-06-04T00:25:33;0.00;;;0.00;;
10096;SDS011;5087;42.662;23.466;2023-06-04T00:28:03;0.00;;;0.00;;
10096;SDS011;5087;42.662;23.466;2023-06-04T00:30:30;0.00;;;0.00;;
10096;SDS011;5087;42.662;23.466;2023-06-04T00:32:58;0.00;;;0.00;;
10096;SDS011;5087;42.662;23.466;2023-06-04T00:35:26;0.30;;;0.07;;
10096;SDS011;5087;42.662;23.466;2023-06-04T00:37:54;0.00;;;0.00;;
10096;SDS011;5087;42.662;23.466;2023-06-04T00:40:22;0.00;;;0.00;;
10096;SDS011;5087;42.662;23.466;2023-06-04T00:42:53;0.00;;;0.00;;
10096;SDS011;5087;42.662;23.466;2023-06-04T00:45:27;0.00;;;0.00;;
10096;SDS011;5087;42.662;23.466;2023-06-04T00:47:56;0.00;;;0.00;;
10096;SDS011;5087;42.662;23.466;2023-06-04T00:50:24;0.00;;;0.00;;
10096;SDS011;5087;42.662;23.466;2023-06-04T00:52:52;0.00;;;0.00;;
10096;SDS011;5087;42.662;23.466;2023-06-04T00:55:21;0.00;;;0.00;;
10096;SDS011;5087;42.662;23.466;2023-06-04T00:57:50;0.00;;;0.00;;
10096;SDS011;5087;42.662;23.466;2023-06-04T01:00:17;0.20;;;0.20;;
10096;SDS011;5087;42.662;23.466;2023-06-04T01:02:47;0.20;;;0.20;;
10096;SDS011;5087;42.662;23.466;2023-06-04T01:05:19;0.00;;;0.00;;
10096;SDS011;5087;42.662;23.466;2023-06-04T01:07:54;0.00;;;0.00;;
10096;SDS011;5087;42.662;23.466;2023-06-04T01:10:24;0.00;;;0.00;;
10096;SDS011;5087;42.662;23.466;2023-06-04T01:12:51;0.00;;;0.00;;
10096;SDS011;5087;42.662;23.466;2023-06-04T01:15:18;0.00;;;0.00;;
10096;SDS011;5087;42.662;23.466;2023-06-04T01:17:48;0.00;;;0.00;;
10096;SDS011;5087;42.662;23.466;2023-06-04T01:20:20;0.00;;;0.00;;
10096;SDS011;5087;42.662;23.466;2023-06-04T01:25:59;0.00;;;0.00;;
10096;SDS011;5087;42.662;23.466;2023-06-04T01:28:29;0.00;;;0.00;;
10096;SDS011;5087;42.662;23.466;2023-06-04T01:31:00;0.00;;;0.00;;
10096;SDS011;5087;42.662;23.466;2023-06-04T01:33:30;0.00;;;0.00;;
10096;SDS011;5087;42.662;23.466;2023-06-04T01:35:58;0.00;;;0.00;;
10096;SDS011;5087;42.662;23.466;2023-06-04T01:38:27;0.00;;;0.00;;
10096;SDS011;5087;42.662;23.466;2023-06-04T01:40:55;0.10;;;0.10;;
10096;SDS011;5087;42.662;23.466;2023-06-04T01:43:27;0.00;;;0.00;;
10096;SDS011;5087;42.662;23.466;2023-06-04T01:45:55;0.00;;;0.00;;
10096;SDS011;5087;42.662;23.466;2023-06-04T01:48:24;0.00;;;0.00;;
10096;SDS011;5087;42.662;23.466;2023-06-04T01:50:53;0.77;;;0.47;;
10096;SDS011;5087;42.662;23.466;2023-06-04T01:53:20;0.20;;;0.20;;
10096;SDS011;5087;42.662;23.466;2023-06-04T01:55:49;0.47;;;0.47;;
10096;SDS011;5087;42.662;23.466;2023-06-04T01:58:18;0.00;;;0.00;;
10096;SDS011;5087;42.662;23.466;2023-06-04T02:00:49;0.00;;;0.00;;
10096;SDS011;5087;42.662;23.466;2023-06-04T02:03:18;0.00;;;0.00;;
10096;SDS011;5087;42.662;23.466;2023-06-04T02:05:46;0.00;;;0.00;;
10096;SDS011;5087;42.662;23.466;2023-06-04T02:08:16;0.00;;;0.00;;
10096;SDS011;5087;42.662;23.466;2023-06-04T02:10:45;0.00;;;0.00;;
10096;SDS011;5087;42.662;23.466;2023-06-04T02:13:14;0.00;;;0.00;;
10096;SDS011;5087;42.662;23.466;2023-06-04T02:15:41;0.00;;;0.00;;
10096;SDS011;5087;42.662;23.466;2023-06-04T02:18:13;0.00;;;0.00;;
10096;SDS011;5087;42.662;23.466;2023-06-04T02:20:43;0.27;;;0.27;;
10096;SDS011;5087;42.662;23.466;2023-06-04T02:23:11;0.00;;;0.00;;
10096;SDS011;5087;42.662;23.466;2023-06-04T02:25:40;0.00;;;0.00;;
10096;SDS011;5087;42.662;23.466;2023-06-04T02:28:10;0.00;;;0.00;;
10096;SDS011;5087;42.662;23.466;2023-06-04T02:30:38;0.07;;;0.07;;
10096;SDS011;5087;42.662;23.466;2023-06-04T02:33:05;0.00;;;0.00;;
10096;SDS011;5087;42.662;23.466;2023-06-04T02:35:35;0.00;;;0.00;;
10096;SDS011;5087;42.662;23.466;2023-06-04T02:38:03;0.00;;;0.00;;
10096;SDS011;5087;42.662;23.466;2023-06-04T02:40:31;0.00;;;0.00;;
10096;SDS011;5087;42.662;23.466;2023-06-04T02:43:00;0.00;;;0.00;;
10096;SDS011;5087;42.662;23.466;2023-06-04T02:45:28;0.00;;;0.00;;
10096;SDS011;5087;42.662;23.466;2023-06-04T02:47:56;0.00;;;0.00;;
10096;SDS011;5087;42.662;23.466;2023-06-04T02:50:23;0.17;;;0.17;;
10096;SDS011;5087;42.662;23.466;2023-06-04T02:52:51;0.00;;;0.00;;
10096;SDS011;5087;42.662;23.466;2023-06-04T02:55:20;0.00;;;0.00;;
10096;SDS011;5087;42.662;23.466;2023-06-04T02:57:49;0.00;;;0.00;;
10096;SDS011;5087;42.662;23.466;2023-06-04T03:00:19;0.00;;;0.00;;
10096;SDS011;5087;42.662;23.466;2023-06-04T03:02:47;0.00;;;0.00;;
10096;SDS011;5087;42.662;23.466;2023-06-04T03:05:16;0.00;;;0.00;;
10096;SDS011;5087;42.662;23.466;2023-06-04T03:07:44;0.00;;;0.00;;
10096;SDS011;5087;42.662;23.466;2023-06-04T03:10:13;0.00;;;0.00;;
10096;SDS011;5087;42.662;23.466;2023-06-04T03:12:42;0.00;;;0.00;;
10096;SDS011;5087;42.662;23.466;2023-06-04T03:15:09;0.00;;;0.00;;
10096;SDS011;5087;42.662;23.466;2023-06-04T03:17:39;0.00;;;0.00;;
10096;SDS011;5087;42.662;23.466;2023-06-04T03:20:07;0.00;;;0.00;;
10096;SDS011;5087;42.662;23.466;2023-06-04T03:22:36;0.00;;;0.00;;
10096;SDS011;5087;42.662;23.466;2023-06-04T03:25:04;0.10;;;0.10;;
10096;SDS011;5087;42.662;23.466;2023-06-04T03:27:33;0.00;;;0.00;;
10096;SDS011;5087;42.662;23.466;2023-06-04T03:30:01;0.00;;;0.00;;
10096;SDS011;5087;42.662;23.466;2023-06-04T03:32:42;0.00;;;0.00;;
10096;SDS011;5087;42.662;23.466;2023-06-04T03:35:11;0.00;;;0.00;;
10096;SDS011;5087;42.662;23.466;2023-06-04T03:37:38;0.00;;;0.00;;
10096;SDS011;5087;42.662;23.466;2023-06-04T03:40:08;0.00;;;0.00;;
10096;SDS011;5087;42.662;23.466;2023-06-04T03:42:40;0.30;;;0.30;;
10096;SDS011;5087;42.662;23.466;2023-06-04T03:45:09;0.00;;;0.00;;
10096;SDS011;5087;42.662;23.466;2023-06-04T03:47:37;0.00;;;0.00;;
10096;SDS011;5087;42.662;23.466;2023-06-04T03:50:09;0.00;;;0.00;;
10096;SDS011;5087;42.662;23.466;2023-06-04T04:14:25;0.00;;;0.00;;
10096;SDS011;5087;42.662;23.466;2023-06-04T04:16:52;0.00;;;0.00;;
10096;SDS011;5087;42.662;23.466;2023-06-04T04:19:20;0.00;;;0.00;;
10096;SDS011;5087;42.662;23.466;2023-06-04T04:21:48;0.00;;;0.00;;
10096;SDS011;5087;42.662;23.466;2023-06-04T04:24:22;0.00;;;0.00;;
10096;SDS011;5087;42.662;23.466;2023-06-04T04:26:51;0.00;;;0.00;;
10096;SDS011;5087;42.662;23.466;2023-06-04T04:29:19;0.10;;;0.10;;
10096;SDS011;5087;42.662;23.466;2023-06-04T04:31:50;0.00;;;0.00;;
10096;SDS011;5087;42.662;23.466;2023-06-04T04:34:21;0.00;;;0.00;;
10096;SDS011;5087;42.662;23.466;2023-06-04T04:36:50;0.00;;;0.00;;
10096;SDS011;5087;42.662;23.466;2023-06-04T04:39:19;0.00;;;0.00;;
10096;SDS011;5087;42.662;23.466;2023-06-04T04:41:50;0.00;;;0.00;;
10096;SDS011;5087;42.662;23.466;2023-06-04T04:44:18;0.20;;;0.20;;
10096;SDS011;5087;42.662;23.466;2023-06-04T04:46:47;0.00;;;0.00;;
10096;SDS011;5087;42.662;23.466;2023-06-04T04:49:17;0.10;;;0.10;;
10096;SDS011;5087;42.662;23.466;2023-06-04T04:51:48;0.00;;;0.00;;
10096;SDS011;5087;42.662;23.466;2023-06-04T04:54:17;0.00;;;0.00;;
10096;SDS011;5087;42.662;23.466;2023-06-04T04:56:44;0.10;;;0.10;;
10096;SDS011;5087;42.662;23.466;2023-06-04T04:59:18;0.00;;;0.00;;
10096;SDS011;5087;42.662;23.466;2023-06-04T05:01:46;0.00;;;0.00;;
10096;SDS011;5087;42.662;23.466;2023-06-04T05:04:13;0.00;;;0.00;;
10096;SDS011;5087;42.662;23.466;2023-06-04T05:06:43;0.00;;;0.00;;
10096;SDS011;5087;42.662;23.466;2023-06-04T05:09:10;0.10;;;0.10;;
10096;SDS011;5087;42.662;23.466;2023-06-04T05:11:38;0.00;;;0.00;;
10096;SDS011;5087;42.662;23.466;2023-06-04T05:14:05;0.00;;;0.00;;
10096;SDS011;5087;42.662;23.466;2023-06-04T05:16:34;0.00;;;0.00;;
10096;SDS011;5087;42.662;23.466;2023-06-04T05:19:05;0.10;;;0.10;;
10096;SDS011;5087;42.662;23.466;2023-06-04T05:21:36;0.00;;;0.00;;
10096;SDS011;5087;42.662;23.466;2023-06-04T05:24:10;0.00;;;0.00;;
10096;SDS011;5087;42.662;23.466;2023-06-04T05:26:41;0.00;;;0.00;;
10096;SDS011;5087;42.662;23.466;2023-06-04T05:29:14;0.00;;;0.00;;
10096;SDS011;5087;42.662;23.466;2023-06-04T05:31:44;0.00;;;0.00;;
10096;SDS011;5087;42.662;23.466;2023-06-04T05:34:14;0.00;;;0.00;;
10096;SDS011;5087;42.662;23.466;2023-06-04T05:36:43;0.00;;;0.00;;
10096;SDS011;5087;42.662;23.466;2023-06-04T05:39:13;0.00;;;0.00;;
10096;SDS011;5087;42.662;23.466;2023-06-04T05:41:49;0.00;;;0.00;;
10096;SDS011;5087;42.662;23.466;2023-06-04T05:44:18;0.30;;;0.30;;
10096;SDS011;5087;42.662;23.466;2023-06-04T05:46:45;0.10;;;0.10;;
10096;SDS011;5087;42.662;23.466;2023-06-04T05:49:13;0.00;;;0.00;;
10096;SDS011;5087;42.662;23.466;2023-06-04T05:51:42;1.10;;;0.30;;
10096;SDS011;5087;42.662;23.466;2023-06-04T06:13:38;0.10;;;0.10;;
10096;SDS011;5087;42.662;23.466;2023-06-04T06:16:09;0.17;;;0.17;;
10096;SDS011;5087;42.662;23.466;2023-06-04T06:18:37;0.07;;;0.07;;
10096;SDS011;5087;42.662;23.466;2023-06-04T06:21:05;0.10;;;0.10;;
10096;SDS011;5087;42.662;23.466;2023-06-04T06:23:33;0.00;;;0.00;;
10096;SDS011;5087;42.662;23.466;2023-06-04T06:26:02;0.00;;;0.00;;
10096;SDS011;5087;42.662;23.466;2023-06-04T06:28:41;0.10;;;0.10;;
10096;SDS011;5087;42.662;23.466;2023-06-04T06:31:14;0.10;;;0.10;;
10096;SDS011;5087;42.662;23.466;2023-06-04T06:33:42;0.20;;;0.20;;
10096;SDS011;5087;42.662;23.466;2023-06-04T06:36:10;0.20;;;0.20;;
10096;SDS011;5087;42.662;23.466;2023-06-04T06:38:38;0.20;;;0.20;;
10096;SDS011;5087;42.662;23.466;2023-06-04T06:41:05;0.20;;;0.20;;
10096;SDS011;5087;42.662;23.466;2023-06-04T06:43:35;0.20;;;0.20;;
10096;SDS011;5087;42.662;23.466;2023-06-04T06:46:10;0.20;;;0.20;;
10096;SDS011;5087;42.662;23.466;2023-06-04T06:48:38;0.20;;;0.20;;
10096;SDS011;5087;42.662;23.466;2023-06-04T06:51:09;0.10;;;0.10;;
10096;SDS011;5087;42.662;23.466;2023-06-04T06:53:36;0.10;;;0.10;;
10096;SDS011;5087;42.662;23.466;2023-06-04T06:56:08;0.10;;;0.10;;
10096;SDS011;5087;42.662;23.466;2023-06-04T06:58:36;0.10;;;0.10;;
10096;SDS011;5087;42.662;23.466;2023-06-04T07:01:39;0.10;;;0.10;;
10096;SDS011;5087;42.662;23.466;2023-06-04T07:04:06;0.10;;;0.10;;
10096;SDS011;5087;42.662;23.466;2023-06-04T07:06:34;0.20;;;0.20;;
10096;SDS011;5087;42.662;23.466;2023-06-04T07:09:02;0.30;;;0.30;;
10096;SDS011;5087;42.662;23.466;2023-06-04T07:11:31;0.20;;;0.20;;
10096;SDS011;5087;42.662;23.466;2023-06-04T07:13:58;0.30;;;0.30;;
10096;SDS011;5087;42.662;23.466;2023-06-04T07:16:27;2.03;;;0.50;;
10096;SDS011;5087;42.662;23.466;2023-06-04T07:18:56;0.30;;;0.30;;
10096;SDS011;5087;42.662;23.466;2023-06-04T07:21:23;0.63;;;0.63;;
10096;SDS011;5087;42.662;23.466;2023-06-04T07:23:51;0.20;;;0.20;;
10096;SDS011;5087;42.662;23.466;2023-06-04T07:26:25;1.07;;;1.07;;
10096;SDS011;5087;42.662;23.466;2023-06-04T07:28:55;0.30;;;0.30;;
10096;SDS011;5087;42.662;23.466;2023-06-04T07:31:26;0.30;;;0.30;;
10096;SDS011;5087;42.662;23.466;2023-06-04T07:33:53;0.40;;;0.40;;
10096;SDS011;5087;42.662;23.466;2023-06-04T07:36:22;0.30;;;0.30;;
10096;SDS011;5087;42.662;23.466;2023-06-04T07:38:50;0.40;;;0.40;;
10096;SDS011;5087;42.662;23.466;2023-06-04T07:41:17;0.40;;;0.40;;
10096;SDS011;5087;42.662;23.466;2023-06-04T07:43:45;0.40;;;0.40;;
10096;SDS011;5087;42.662;23.466;2023-06-04T07:46:16;0.40;;;0.40;;
10096;SDS011;5087;42.662;23.466;2023-06-04T07:48:47;0.30;;;0.30;;
10096;SDS011;5087;42.662;23.466;2023-06-04T07:51:16;0.50;;;0.50;;
10096;SDS011;5087;42.662;23.466;2023-06-04T07:53:45;0.60;;;0.60;;
10096;SDS011;5087;42.662;23.466;2023-06-04T07:56:15;0.40;;;0.40;;
10096;SDS011;5087;42.662;23.466;2023-06-04T07:58:43;0.40;;;0.40;;
10096;SDS011;5087;42.662;23.466;2023-06-04T08:01:12;0.40;;;0.40;;
10096;SDS011;5087;42.662;23.466;2023-06-04T08:03:39;0.77;;;0.77;;
10096;SDS011;5087;42.662;23.466;2023-06-04T08:06:10;0.50;;;0.50;;
10096;SDS011;5087;42.662;23.466;2023-06-04T08:08:43;0.40;;;0.40;;
10096;SDS011;5087;42.662;23.466;2023-06-04T08:11:11;0.40;;;0.40;;
10096;SDS011;5087;42.662;23.466;2023-06-04T08:13:39;0.40;;;0.40;;
10096;SDS011;5087;42.662;23.466;2023-06-04T08:16:07;0.50;;;0.50;;
10096;SDS011;5087;42.662;23.466;2023-06-04T08:18:37;0.50;;;0.50;;
10096;SDS011;5087;42.662;23.466;2023-06-04T08:21:13;0.50;;;0.50;;
10096;SDS011;5087;42.662;23.466;2023-06-04T08:23:46;0.50;;;0.50;;
10096;SDS011;5087;42.662;23.466;2023-06-04T08:26:13;0.40;;;0.40;;
10096;SDS011;5087;42.662;23.466;2023-06-04T08:28:40;0.50;;;0.50;;
10096;SDS011;5087;42.662;23.466;2023-06-04T08:31:08;0.60;;;0.60;;
10096;SDS011;5087;42.662;23.466;2023-06-04T08:33:36;0.40;;;0.40;;
10096;SDS011;5087;42.662;23.466;2023-06-04T08:36:03;0.40;;;0.40;;
10096;SDS011;5087;42.662;23.466;2023-06-04T08:38:32;2.80;;;2.23;;
10096;SDS011;5087;42.662;23.466;2023-06-04T08:41:02;0.63;;;0.63;;
10096;SDS011;5087;42.662;23.466;2023-06-04T08:43:36;0.40;;;0.40;;
10096;SDS011;5087;42.662;23.466;2023-06-04T08:46:07;0.50;;;0.50;;
10096;SDS011;5087;42.662;23.466;2023-06-04T08:48:35;0.50;;;0.50;;
10096;SDS011;5087;42.662;23.466;2023-06-04T08:51:05;0.40;;;0.40;;
10096;SDS011;5087;42.662;23.466;2023-06-04T08:53:34;0.40;;;0.40;;
10096;SDS011;5087;42.662;23.466;2023-06-04T08:56:04;0.40;;;0.40;;
10096;SDS011;5087;42.662;23.466;2023-06-04T08:58:32;0.40;;;0.40;;
10096;SDS011;5087;42.662;23.466;2023-06-04T09:01:00;0.70;;;0.70;;
10096;SDS011;5087;42.662;23.466;2023-06-04T09:03:28;0.40;;;0.40;;
10096;SDS011;5087;42.662;23.466;2023-06-04T09:05:56;0.60;;;0.60;;
10096;SDS011;5087;42.662;23.466;2023-06-04T09:08:30;1.23;;;1.23;;
10096;SDS011;5087;42.662;23.466;2023-06-04T09:11:01;0.50;;;0.50;;
10096;SDS011;5087;42.662;23.466;2023-06-04T09:13:34;0.50;;;0.50;;
10096;SDS011;5087;42.662;23.466;2023-06-04T09:16:03;0.60;;;0.60;;
10096;SDS011;5087;42.662;23.466;2023-06-04T09:18:31;0.60;;;0.60;;
10096;SDS011;5087;42.662;23.466;2023-06-04T09:21:00;0.50;;;0.50;;
10096;SDS011;5087;42.662;23.466;2023-06-04T09:23:28;0.50;;;0.50;;
10096;SDS011;5087;42.662;23.466;2023-06-04T09:26:06;0.80;;;0.80;;
10096;SDS011;5087;42.662;23.466;2023-06-04T09:28:34;0.50;;;0.50;;
10096;SDS011;5087;42.662;23.466;2023-06-04T09:31:02;0.50;;;0.50;;
10096;SDS011;5087;42.662;23.466;2023-06-04T09:33:29;0.50;;;0.50;;
10096;SDS011;5087;42.662;23.466;2023-06-04T09:35:57;1.00;;;1.00;;
10096;SDS011;5087;42.662;23.466;2023-06-04T09:38:31;0.50;;;0.50;;
10096;SDS011;5087;42.662;23.466;2023-06-04T09:41:00;0.47;;;0.47;;
10096;SDS011;5087;42.662;23.466;2023-06-04T09:43:31;0.50;;;0.50;;
10096;SDS011;5087;42.662;23.466;2023-06-04T09:46:08;0.60;;;0.60;;
10096;SDS011;5087;42.662;23.466;2023-06-04T09:48:37;0.70;;;0.70;;
10096;SDS011;5087;42.662;23.466;2023-06-04T09:51:08;24.33;;;1.20;;
10096;SDS011;5087;42.662;23.466;2023-06-04T09:53:36;0.50;;;0.50;;
10096;SDS011;5087;42.662;23.466;2023-06-04T09:56:04;0.60;;;0.60;;
10096;SDS011;5087;42.662;23.466;2023-06-04T09:58:34;0.60;;;0.60;;
10096;SDS011;5087;42.662;23.466;2023-06-04T10:01:02;0.50;;;0.50;;
10096;SDS011;5087;42.662;23.466;2023-06-04T10:03:32;0.53;;;0.53;;
10096;SDS011;5087;42.662;23.466;2023-06-04T10:06:01;0.50;;;0.50;;
10096;SDS011;5087;42.662;23.466;2023-06-04T10:08:30;0.57;;;0.57;;
10096;SDS011;5087;42.662;23.466;2023-06-04T10:11:02;2.13;;;2.03;;
10096;SDS011;5087;42.662;23.466;2023-06-04T10:13:47;0.50;;;0.50;;
10096;SDS011;5087;42.662;23.466;2023-06-04T10:16:20;0.50;;;0.50;;
10096;SDS011;5087;42.662;23.466;2023-06-04T10:18:49;0.70;;;0.70;;
10096;SDS011;5087;42.662;23.466;2023-06-04T10:21:16;0.50;;;0.50;;
10096;SDS011;5087;42.662;23.466;2023-06-04T10:23:48;0.53;;;0.53;;
10096;SDS011;5087;42.662;23.466;2023-06-04T10:26:16;0.70;;;0.70;;
10096;SDS011;5087;42.662;23.466;2023-06-04T10:28:43;0.50;;;0.50;;
10096;SDS011;5087;42.662;23.466;2023-06-04T10:31:15;1.00;;;1.00;;
10096;SDS011;5087;42.662;23.466;2023-06-04T10:33:43;0.60;;;0.60;;
10096;SDS011;5087;42.662;23.466;2023-06-04T10:36:18;0.80;;;0.80;;
10096;SDS011;5087;42.662;23.466;2023-06-04T10:38:47;0.50;;;0.50;;
10096;SDS011;5087;42.662;23.466;2023-06-04T10:41:15;1.00;;;1.00;;
10096;SDS011;5087;42.662;23.466;2023-06-04T10:43:44;0.60;;;0.60;;
10096;SDS011;5087;42.662;23.466;2023-06-04T10:46:18;0.80;;;0.80;;
10096;SDS011;5087;42.662;23.466;2023-06-04T10:48:46;0.50;;;0.50;;
10096;SDS011;5087;42.662;23.466;2023-06-04T10:51:15;0.60;;;0.60;;
10096;SDS011;5087;42.662;23.466;2023-06-04T10:53:43;0.50;;;0.50;;
10096;SDS011;5087;42.662;23.466;2023-06-04T10:56:13;0.70;;;0.70;;
10096;SDS011;5087;42.662;23.466;2023-06-04T10:58:51;0.50;;;0.50;;
10096;SDS011;5087;42.662;23.466;2023-06-04T11:01:24;0.67;;;0.67;;
10096;SDS011;5087;42.662;23.466;2023-06-04T11:03:52;0.90;;;0.90;;
10096;SDS011;5087;42.662;23.466;2023-06-04T11:06:19;0.90;;;0.90;;
10096;SDS011;5087;42.662;23.466;2023-06-04T11:08:48;0.50;;;0.50;;
10096;SDS011;5087;42.662;23.466;2023-06-04T11:11:15;0.50;;;0.50;;
10096;SDS011;5087;42.662;23.466;2023-06-04T11:13:47;0.60;;;0.60;;
10096;SDS011;5087;42.662;23.466;2023-06-04T11:16:14;0.50;;;0.50;;
10096;SDS011;5087;42.662;23.466;2023-06-04T11:18:49;0.60;;;0.60;;
10096;SDS011;5087;42.662;23.466;2023-06-04T11:21:21;0.60;;;0.60;;
10096;SDS011;5087;42.662;23.466;2023-06-04T11:23:48;0.50;;;0.50;;
10096;SDS011;5087;42.662;23.466;2023-06-04T11:26:16;0.80;;;0.80;;
10096;SDS011;5087;42.662;23.466;2023-06-04T11:28:43;0.60;;;0.60;;
10096;SDS011;5087;42.662;23.466;2023-06-04T11:31:15;0.57;;;0.57;;
10096;SDS011;5087;42.662;23.466;2023-06-04T11:33:42;0.50;;;0.50;;
10096;SDS011;5087;42.662;23.466;2023-06-04T11:36:23;0.50;;;0.50;;
10096;SDS011;5087;42.662;23.466;2023-06-04T11:38:55;1.10;;;1.10;;
10096;SDS011;5087;42.662;23.466;2023-06-04T11:41:24;0.60;;;0.60;;
10096;SDS011;5087;42.662;23.466;2023-06-04T11:43:53;1.10;;;1.10;;
10096;SDS011;5087;42.662;23.466;2023-06-04T11:46:22;0.80;;;0.80;;
10096;SDS011;5087;42.662;23.466;2023-06-04T11:48:51;0.57;;;0.57;;
10096;SDS011;5087;42.662;23.466;2023-06-04T11:51:19;0.57;;;0.57;;
10096;SDS011;5087;42.662;23.466;2023-06-04T11:53:48;0.77;;;0.77;;
10096;SDS011;5087;42.662;23.466;2023-06-04T11:56:15;0.80;;;0.80;;
10096;SDS011;5087;42.662;23.466;2023-06-04T11:58:43;0.70;;;0.70;;
10096;SDS011;5087;42.662;23.466;2023-06-04T12:01:14;0.40;;;0.40;;
10096;SDS011;5087;42.662;23.466;2023-06-04T12:03:42;0.77;;;0.77;;
10096;SDS011;5087;42.662;23.466;2023-06-04T12:06:11;0.50;;;0.50;;
10096;SDS011;5087;42.662;23.466;2023-06-04T12:08:50;0.50;;;0.50;;
10096;SDS011;5087;42.662;23.466;2023-06-04T12:11:25;0.60;;;0.60;;
10096;SDS011;5087;42.662;23.466;2023-06-04T12:13:55;0.80;;;0.80;;
10096;SDS011;5087;42.662;23.466;2023-06-04T12:16:23;0.90;;;0.90;;
10096;SDS011;5087;42.662;23.466;2023-06-04T12:18:51;1.70;;;1.03;;
10096;SDS011;5087;42.662;23.466;2023-06-04T12:21:20;1.20;;;1.20;;
10096;SDS011;5087;42.662;23.466;2023-06-04T12:24:04;0.70;;;0.70;;
10096;SDS011;5087;42.662;23.466;2023-06-04T12:26:32;1.07;;;1.07;;
10096;SDS011;5087;42.662;23.466;2023-06-04T12:29:06;0.77;;;0.77;;
10096;SDS011;5087;42.662;23.466;2023-06-04T12:31:36;0.40;;;0.40;;
10096;SDS011;5087;42.662;23.466;2023-06-04T12:34:04;0.50;;;0.50;;
10096;SDS011;5087;42.662;23.466;2023-06-04T12:36:31;0.60;;;0.60;;
10096;SDS011;5087;42.662;23.466;2023-06-04T12:39:02;0.50;;;0.50;;
10096;SDS011;5087;42.662;23.466;2023-06-04T12:41:30;0.50;;;0.50;;
10096;SDS011;5087;42.662;23.466;2023-06-04T12:43:58;0.57;;;0.57;;
10096;SDS011;5087;42.662;23.466;2023-06-04T12:46:26;0.60;;;0.60;;
10096;SDS011;5087;42.662;23.466;2023-06-04T12:48:54;0.70;;;0.70;;
10096;SDS011;5087;42.662;23.466;2023-06-04T12:51:22;0.53;;;0.53;;
10096;SDS011;5087;42.662;23.466;2023-06-04T12:53:49;0.50;;;0.50;;
10096;SDS011;5087;42.662;23.466;2023-06-04T12:56:19;0.50;;;0.50;;
10096;SDS011;5087;42.662;23.466;2023-06-04T12:58:47;0.77;;;0.77;;
10096;SDS011;5087;42.662;23.466;2023-06-04T13:01:14;0.60;;;0.60;;
10096;SDS011;5087;42.662;23.466;2023-06-04T13:03:42;0.50;;;0.50;;
10096;SDS011;5087;42.662;23.466;2023-06-04T13:06:09;0.50;;;0.50;;
10096;SDS011;5087;42.662;23.466;2023-06-04T13:08:36;0.50;;;0.50;;
10096;SDS011;5087;42.662;23.466;2023-06-04T13:11:04;0.53;;;0.53;;
10096;SDS011;5087;42.662;23.466;2023-06-04T13:13:33;0.87;;;0.87;;
10096;SDS011;5087;42.662;23.466;2023-06-04T13:16:00;0.40;;;0.40;;
10096;SDS011;5087;42.662;23.466;2023-06-04T13:18:28;0.40;;;0.40;;
10096;SDS011;5087;42.662;23.466;2023-06-04T13:20:55;0.50;;;0.50;;
10096;SDS011;5087;42.662;23.466;2023-06-04T13:23:23;0.60;;;0.60;;
10096;SDS011;5087;42.662;23.466;2023-06-04T13:25:50;0.43;;;0.43;;
10096;SDS011;5087;42.662;23.466;2023-06-04T13:28:17;0.70;;;0.70;;
10096;SDS011;5087;42.662;23.466;2023-06-04T13:30:48;0.53;;;0.53;;
10096;SDS011;5087;42.662;23.466;2023-06-04T13:33:15;0.67;;;0.67;;
10096;SDS011;5087;42.662;23.466;2023-06-04T13:35:44;0.40;;;0.40;;
10096;SDS011;5087;42.662;23.466;2023-06-04T13:38:15;0.47;;;0.47;;
10096;SDS011;5087;42.662;23.466;2023-06-04T13:40:42;0.70;;;0.70;;
10096;SDS011;5087;42.662;23.466;2023-06-04T13:43:11;0.67;;;0.67;;
10096;SDS011;5087;42.662;23.466;2023-06-04T13:45:38;0.57;;;0.57;;
10096;SDS011;5087;42.662;23.466;2023-06-04T13:48:07;0.50;;;0.50;;
10096;SDS011;5087;42.662;23.466;2023-06-04T13:50:35;0.50;;;0.50;;
10096;SDS011;5087;42.662;23.466;2023-06-04T13:53:02;0.50;;;0.50;;
10096;SDS011;5087;42.662;23.466;2023-06-04T13:55:29;0.50;;;0.50;;
10096;SDS011;5087;42.662;23.466;2023-06-04T13:57:57;0.50;;;0.50;;
10096;SDS011;5087;42.662;23.466;2023-06-04T14:00:24;0.40;;;0.40;;
10096;SDS011;5087;42.662;23.466;2023-06-04T14:02:52;0.80;;;0.80;;
10096;SDS011;5087;42.662;23.466;2023-06-04T14:05:22;0.50;;;0.50;;
10096;SDS011;5087;42.662;23.466;2023-06-04T14:07:50;0.50;;;0.50;;
10096;SDS011;5087;42.662;23.466;2023-06-04T14:10:17;0.60;;;0.60;;
10096;SDS011;5087;42.662;23.466;2023-06-04T14:12:48;1.00;;;1.00;;
10096;SDS011;5087;42.662;23.466;2023-06-04T14:15:15;0.60;;;0.60;;
10096;SDS011;5087;42.662;23.466;2023-06-04T14:17:42;0.53;;;0.53;;
10096;SDS011;5087;42.662;23.466;2023-06-04T14:20:09;0.50;;;0.50;;
10096;SDS011;5087;42.662;23.466;2023-06-04T14:22:38;0.50;;;0.50;;
10096;SDS011;5087;42.662;23.466;2023-06-04T14:25:06;0.50;;;0.50;;
10096;SDS011;5087;42.662;23.466;2023-06-04T14:27:34;0.60;;;0.60;;
10096;SDS011;5087;42.662;23.466;2023-06-04T14:30:02;0.70;;;0.70;;
10096;SDS011;5087;42.662;23.466;2023-06-04T14:32:29;0.53;;;0.53;;
10096;SDS011;5087;42.662;23.466;2023-06-04T14:34:59;2.63;;;2.50;;
10096;SDS011;5087;42.662;23.466;2023-06-04T14:37:26;0.70;;;0.70;;
10096;SDS011;5087;42.662;23.466;2023-06-04T14:39:54;0.53;;;0.53;;
10096;SDS011;5087;42.662;23.466;2023-06-04T14:42:22;0.60;;;0.60;;
10096;SDS011;5087;42.662;23.466;2023-06-04T14:44:49;0.70;;;0.70;;
10096;SDS011;5087;42.662;23.466;2023-06-04T14:47:16;1.10;;;1.10;;
10096;SDS011;5087;42.662;23.466;2023-06-04T14:49:43;0.60;;;0.60;;
10096;SDS011;5087;42.662;23.466;2023-06-04T14:52:13;0.70;;;0.70;;
10096;SDS011;5087;42.662;23.466;2023-06-04T14:54:41;0.60;;;0.60;;
10096;SDS011;5087;42.662;23.466;2023-06-04T14:57:10;0.60;;;0.60;;
10096;SDS011;5087;42.662;23.466;2023-06-04T14:59:38;0.70;;;0.70;;
10096;SDS011;5087;42.662;23.466;2023-06-04T15:02:05;0.83;;;0.83;;
10096;SDS011;5087;42.662;23.466;2023-06-04T15:04:32;0.63;;;0.63;;
10096;SDS011;5087;42.662;23.466;2023-06-04T15:07:00;0.80;;;0.80;;
10096;SDS011;5087;42.662;23.466;2023-06-04T15:09:27;0.53;;;0.53;;
10096;SDS011;5087;42.662;23.466;2023-06-04T15:11:54;0.50;;;0.50;;
10096;SDS011;5087;42.662;23.466;2023-06-04T15:14:23;0.60;;;0.60;;
10096;SDS011;5087;42.662;23.466;2023-06-04T15:16:50;0.57;;;0.57;;
10096;SDS011;5087;42.662;23.466;2023-06-04T15:19:17;0.70;;;0.70;;
10096;SDS011;5087;42.662;23.466;2023-06-04T15:21:44;0.80;;;0.80;;
10096;SDS011;5087;42.662;23.466;2023-06-04T15:24:15;0.60;;;0.60;;
10096;SDS011;5087;42.662;23.466;2023-06-04T15:26:42;0.97;;;0.97;;
10096;SDS011;5087;42.662;23.466;2023-06-04T15:29:10;0.50;;;0.50;;
10096;SDS011;5087;42.662;23.466;2023-06-04T15:31:38;0.60;;;0.60;;
10096;SDS011;5087;42.662;23.466;2023-06-04T15:34:06;0.60;;;0.60;;
10096;SDS011;5087;42.662;23.466;2023-06-04T15:36:33;0.60;;;0.60;;
10096;SDS011;5087;42.662;23.466;2023-06-04T15:39:02;0.50;;;0.50;;
10096;SDS011;5087;42.662;23.466;2023-06-04T15:41:30;0.50;;;0.50;;
10096;SDS011;5087;42.662;23.466;2023-06-04T15:43:57;0.50;;;0.50;;